createdAt,value
2017-02-22T00:00:13.740Z,72
2017-02-22T00:01:19.765Z,72
2017-02-22T00:02:25.784Z,72
2017-02-22T00:03:31.801Z,72
2017-02-22T00:04:37.819Z,72
2017-02-22T00:05:43.849Z,72
2017-02-22T00:06:49.875Z,72
2017-02-22T00:07:55.231Z,72
2017-02-22T00:09:01.255Z,72
2017-02-22T00:10:07.272Z,72
2017-02-22T00:11:13.677Z,72
2017-02-22T00:12:19.407Z,72
2017-02-22T00:13:27.953Z,72
2017-02-22T00:14:40.744Z,72
2017-02-22T00:15:44.779Z,72
2017-02-22T00:16:50.803Z,72
2017-02-22T00:17:56.819Z,72
2017-02-22T00:19:02.832Z,72
2017-02-22T00:20:08.860Z,72
2017-02-22T00:21:14.873Z,72
2017-02-22T00:22:20.900Z,72
2017-02-22T00:23:26.923Z,72
2017-02-22T00:24:32.934Z,72
2017-02-22T00:25:38.959Z,72
2017-02-22T00:26:44.976Z,72
2017-02-22T00:27:49.894Z,72
2017-02-22T00:28:55.908Z,72
2017-02-22T00:30:01.931Z,72
2017-02-22T00:31:07.957Z,72
2017-02-22T00:32:13.072Z,72
2017-02-22T00:33:19.167Z,72
2017-02-22T00:34:25.332Z,72
2017-02-22T00:35:30.313Z,72
2017-02-22T00:36:36.352Z,72
2017-02-22T00:37:43.296Z,72
2017-02-22T00:38:49.083Z,72
2017-02-22T00:39:55.246Z,72
2017-02-22T00:41:01.300Z,72
2017-02-22T00:42:07.332Z,72
2017-02-22T00:43:14.066Z,72
2017-02-22T00:44:19.959Z,72
2017-02-22T00:45:25.320Z,72
2017-02-22T00:46:30.680Z,72
2017-02-22T00:47:36.690Z,72
2017-02-22T00:48:42.722Z,72
2017-02-22T00:49:48.728Z,72
2017-02-22T00:50:53.686Z,72
2017-02-22T00:51:59.708Z,72
2017-02-22T00:53:05.057Z,72
2017-02-22T00:54:11.081Z,72
2017-02-22T00:55:17.095Z,72
2017-02-22T00:56:23.120Z,72
2017-02-22T00:57:29.137Z,72
2017-02-22T00:58:35.156Z,72
2017-02-22T00:59:41.174Z,72
2017-02-22T01:00:46.538Z,71
2017-02-22T01:01:52.565Z,71
2017-02-22T01:02:58.592Z,71
2017-02-22T01:04:04.606Z,71
2017-02-22T01:05:10.623Z,71
2017-02-22T01:06:16.642Z,71
2017-02-22T01:07:22.669Z,71
2017-02-22T01:08:28.725Z,71
2017-02-22T01:09:34.766Z,71
2017-02-22T01:10:40.785Z,71
2017-02-22T01:11:46.810Z,72
2017-02-22T01:12:52.833Z,72
2017-02-22T01:13:58.883Z,72
2017-02-22T01:15:04.231Z,72
2017-02-22T01:16:10.249Z,72
2017-02-22T01:17:16.267Z,72
2017-02-22T01:18:22.284Z,72
2017-02-22T01:19:28.364Z,72
2017-02-22T01:20:34.385Z,72
2017-02-22T01:21:40.436Z,72
2017-02-22T01:22:46.450Z,72
2017-02-22T01:23:52.483Z,72
2017-02-22T01:24:58.501Z,72
2017-02-22T01:26:04.528Z,72
2017-02-22T01:27:10.552Z,72
2017-02-22T01:28:16.578Z,72
2017-02-22T01:29:22.586Z,72
2017-02-22T01:30:28.615Z,72
2017-02-22T01:31:33.959Z,72
2017-02-22T01:32:39.984Z,71
2017-02-22T01:33:46.002Z,71
2017-02-22T01:34:52.026Z,71
2017-02-22T01:35:58.039Z,72
2017-02-22T01:37:04.061Z,72
2017-02-22T01:38:10.107Z,72
2017-02-22T01:39:16.107Z,72
2017-02-22T01:40:22.126Z,72
2017-02-22T01:41:27.491Z,72
2017-02-22T01:42:32.405Z,72
2017-02-22T01:43:38.429Z,72
2017-02-22T01:44:44.450Z,72
2017-02-22T01:45:50.571Z,72
2017-02-22T01:46:56.500Z,73
2017-02-22T01:48:01.865Z,73
2017-02-22T01:49:07.890Z,73
2017-02-22T01:50:13.903Z,73
2017-02-22T01:51:19.922Z,73
2017-02-22T01:52:25.996Z,73
2017-02-22T01:53:32.009Z,73
2017-02-22T01:54:38.009Z,73
2017-02-22T01:55:44.036Z,74
2017-02-22T01:56:50.054Z,74
2017-02-22T01:57:56.080Z,74
2017-02-22T01:59:01.447Z,74
2017-02-22T02:00:07.471Z,74
2017-02-22T02:01:13.498Z,74
2017-02-22T02:02:19.527Z,75
2017-02-22T02:03:25.546Z,75
2017-02-22T02:04:31.564Z,75
2017-02-22T02:05:37.585Z,75
2017-02-22T02:06:43.602Z,76
2017-02-22T02:07:49.620Z,76
2017-02-22T02:08:55.636Z,76
2017-02-22T02:10:01.659Z,76
2017-02-22T02:11:07.681Z,76
2017-02-22T02:12:13.701Z,77
2017-02-22T02:13:19.724Z,77
2017-02-22T02:14:25.748Z,77
2017-02-22T02:15:30.883Z,77
2017-02-22T02:16:36.681Z,78
2017-02-22T02:17:42.698Z,78
2017-02-22T02:18:48.718Z,78
2017-02-22T02:19:54.741Z,78
2017-02-22T02:21:00.760Z,78
2017-02-22T02:22:06.777Z,78
2017-02-22T02:23:12.999Z,78
2017-02-22T02:24:18.824Z,79
2017-02-22T02:25:24.843Z,79
2017-02-22T02:26:30.858Z,79
2017-02-22T02:27:36.882Z,79
2017-02-22T02:28:42.279Z,79
2017-02-22T02:29:48.298Z,79
2017-02-22T02:30:54.326Z,79
2017-02-22T02:32:00.348Z,80
2017-02-22T02:33:05.699Z,80
2017-02-22T02:34:11.727Z,80
2017-02-22T02:35:17.755Z,80
2017-02-22T02:36:23.773Z,80
2017-02-22T02:37:29.784Z,80
2017-02-22T02:38:35.797Z,80
2017-02-22T02:39:41.916Z,80
2017-02-22T02:40:47.933Z,81
2017-02-22T02:41:54.005Z,81
2017-02-22T02:43:00.028Z,81
2017-02-22T02:44:06.051Z,81
2017-02-22T02:45:12.074Z,81
2017-02-22T02:46:18.093Z,81
2017-02-22T02:47:24.113Z,81
2017-02-22T02:48:29.029Z,81
2017-02-22T02:49:34.385Z,82
2017-02-22T02:50:40.432Z,82
2017-02-22T02:51:44.707Z,82
2017-02-22T02:52:50.728Z,82
2017-02-22T02:53:56.755Z,82
2017-02-22T02:55:02.774Z,82
2017-02-22T02:56:08.125Z,82
2017-02-22T02:57:14.147Z,82
2017-02-22T02:58:20.171Z,82
2017-02-22T02:59:26.193Z,82
2017-02-22T03:00:31.555Z,83
2017-02-22T03:01:37.575Z,83
2017-02-22T03:03:52.302Z,83
2017-02-22T03:04:58.319Z,83
2017-02-22T03:06:04.346Z,83
2017-02-22T03:07:10.371Z,84
2017-02-22T03:08:16.393Z,84
2017-02-22T03:09:22.414Z,84
2017-02-22T03:10:28.430Z,84
2017-02-22T03:11:34.451Z,84
2017-02-22T03:12:40.464Z,84
2017-02-22T03:13:46.478Z,85
2017-02-22T03:14:52.492Z,85
2017-02-22T03:15:58.506Z,85
2017-02-22T03:17:04.525Z,85
2017-02-22T03:18:10.547Z,85
2017-02-22T03:19:16.570Z,85
2017-02-22T03:20:22.595Z,86
2017-02-22T03:21:28.617Z,87
2017-02-22T03:22:34.646Z,87
2017-02-22T03:23:40.665Z,87
2017-02-22T03:24:46.027Z,87
2017-02-22T03:25:52.052Z,87
2017-02-22T03:26:58.074Z,87
2017-02-22T03:28:04.095Z,87
2017-02-22T03:29:10.112Z,87
2017-02-22T03:30:15.465Z,87
2017-02-22T03:31:21.483Z,88
2017-02-22T03:32:27.502Z,88
2017-02-22T03:33:33.531Z,88
2017-02-22T03:34:39.551Z,88
2017-02-22T03:35:45.572Z,88
2017-02-22T03:36:50.918Z,88
2017-02-22T03:37:56.941Z,88
2017-02-22T03:39:02.954Z,88
2017-02-22T03:40:08.976Z,88
2017-02-22T03:41:14.991Z,88
2017-02-22T03:42:21.007Z,89
2017-02-22T03:43:26.359Z,89
2017-02-22T03:44:32.374Z,89
2017-02-22T03:45:38.385Z,89
2017-02-22T03:46:44.399Z,89
2017-02-22T03:47:50.411Z,89
2017-02-22T03:48:56.429Z,89
2017-02-22T03:50:02.447Z,89
2017-02-22T03:51:08.461Z,89
2017-02-22T03:52:13.378Z,89
2017-02-22T03:53:19.400Z,89
2017-02-22T03:54:24.323Z,90
2017-02-22T03:55:30.340Z,90
2017-02-22T03:56:36.361Z,90
2017-02-22T03:57:42.379Z,90
2017-02-22T03:58:48.397Z,89
2017-02-22T03:59:54.412Z,89
2017-02-22T04:01:00.427Z,89
2017-02-22T04:02:05.349Z,89
2017-02-22T04:03:11.370Z,89
2017-02-22T04:04:17.384Z,89
2017-02-22T04:05:22.731Z,89
2017-02-22T04:06:28.753Z,89
2017-02-22T04:07:34.774Z,89
2017-02-22T04:08:40.790Z,89
2017-02-22T04:09:46.810Z,90
2017-02-22T04:10:51.725Z,90
2017-02-22T04:11:57.742Z,90
2017-02-22T04:13:03.117Z,90
2017-02-22T04:14:08.457Z,90
2017-02-22T04:15:13.375Z,90
2017-02-22T04:16:19.389Z,90
2017-02-22T04:17:25.412Z,90
2017-02-22T04:18:31.432Z,90
2017-02-22T04:19:37.451Z,90
2017-02-22T04:20:43.469Z,90
2017-02-22T04:21:49.486Z,90
2017-02-22T04:22:55.505Z,90
2017-02-22T04:24:01.517Z,90
2017-02-22T04:25:07.543Z,90
2017-02-22T04:26:13.553Z,90
2017-02-22T04:27:18.915Z,90
2017-02-22T04:28:24.934Z,90
2017-02-22T04:29:30.953Z,90
2017-02-22T04:30:36.963Z,90
2017-02-22T04:31:42.977Z,91
2017-02-22T04:32:49.000Z,91
2017-02-22T04:33:55.014Z,91
2017-02-22T04:35:01.024Z,91
2017-02-22T04:36:07.044Z,91
2017-02-22T04:37:13.063Z,91
2017-02-22T04:38:19.086Z,91
2017-02-22T04:39:25.100Z,91
2017-02-22T04:40:31.118Z,91
2017-02-22T04:41:37.134Z,91
2017-02-22T04:42:43.157Z,91
2017-02-22T04:43:49.180Z,91
2017-02-22T04:44:54.531Z,91
2017-02-22T04:46:00.549Z,91
2017-02-22T04:47:06.570Z,91
2017-02-22T04:48:12.586Z,91
2017-02-22T04:49:18.600Z,91
2017-02-22T04:50:24.627Z,91
2017-02-22T04:51:28.887Z,91
2017-02-22T04:52:34.904Z,91
2017-02-22T04:53:40.910Z,91
2017-02-22T04:54:46.267Z,91
2017-02-22T04:55:52.281Z,91
2017-02-22T04:56:58.292Z,91
2017-02-22T04:58:04.300Z,91
2017-02-22T04:59:10.322Z,91
2017-02-22T05:00:16.334Z,91
2017-02-22T05:01:22.349Z,92
2017-02-22T05:02:27.708Z,92
2017-02-22T05:03:33.724Z,92
2017-02-22T05:04:39.741Z,92
2017-02-22T05:05:45.762Z,92
2017-02-22T05:06:51.779Z,92
2017-02-22T05:07:57.797Z,92
2017-02-22T05:09:03.813Z,92
2017-02-22T05:10:08.735Z,92
2017-02-22T05:11:14.748Z,92
2017-02-22T05:12:20.768Z,92
2017-02-22T05:13:26.788Z,92
2017-02-22T05:14:32.143Z,92
2017-02-22T05:15:38.159Z,92
2017-02-22T05:16:44.177Z,92
2017-02-22T05:17:50.193Z,92
2017-02-22T05:18:56.208Z,92
2017-02-22T05:20:02.224Z,92
2017-02-22T05:21:08.243Z,92
2017-02-22T05:22:14.258Z,92
2017-02-22T05:23:20.271Z,92
2017-02-22T05:24:26.283Z,92
2017-02-22T05:25:32.301Z,92
2017-02-22T05:26:38.319Z,92
2017-02-22T05:27:44.329Z,92
2017-02-22T05:28:50.347Z,92
2017-02-22T05:29:55.701Z,92
2017-02-22T05:31:01.056Z,92
2017-02-22T05:32:07.075Z,92
2017-02-22T05:33:13.091Z,92
2017-02-22T05:34:19.112Z,91
2017-02-22T05:35:24.033Z,91
2017-02-22T05:36:30.051Z,91
2017-02-22T05:37:36.074Z,91
2017-02-22T05:38:41.431Z,91
2017-02-22T05:39:46.355Z,91
2017-02-22T05:40:51.047Z,91
2017-02-22T05:41:57.066Z,91
2017-02-22T05:43:02.425Z,90
2017-02-22T05:44:08.442Z,90
2017-02-22T05:45:14.463Z,90
2017-02-22T05:46:20.484Z,90
2017-02-22T05:47:26.498Z,90
2017-02-22T05:48:32.517Z,90
2017-02-22T05:49:38.534Z,90
2017-02-22T05:50:43.893Z,90
2017-02-22T05:51:49.905Z,90
2017-02-22T05:52:55.923Z,90
2017-02-22T05:54:01.281Z,90
2017-02-22T05:55:07.290Z,90
2017-02-22T05:56:13.312Z,90
2017-02-22T05:57:19.331Z,90
2017-02-22T05:58:24.245Z,90
2017-02-22T05:59:29.162Z,90
2017-02-22T06:00:35.181Z,90
2017-02-22T06:01:40.537Z,90
2017-02-22T06:02:46.549Z,89
2017-02-22T06:03:52.572Z,89
2017-02-22T06:04:57.927Z,89
2017-02-22T06:06:03.934Z,89
2017-02-22T06:07:09.960Z,89
2017-02-22T06:08:15.977Z,89
2017-02-22T06:09:21.995Z,89
2017-02-22T06:10:26.913Z,89
2017-02-22T06:11:32.930Z,89
2017-02-22T06:12:38.943Z,89
2017-02-22T06:13:44.956Z,89
2017-02-22T06:14:50.977Z,89
2017-02-22T06:15:57.000Z,89
2017-02-22T06:17:03.009Z,89
2017-02-22T06:18:09.031Z,89
2017-02-22T06:19:15.050Z,89
2017-02-22T06:20:21.068Z,89
2017-02-22T06:21:27.078Z,89
2017-02-22T06:22:33.102Z,88
2017-02-22T06:23:39.115Z,88
2017-02-22T06:24:45.131Z,88
2017-02-22T06:25:51.143Z,88
2017-02-22T06:26:57.162Z,88
2017-02-22T06:28:03.175Z,88
2017-02-22T06:29:08.095Z,88
2017-02-22T06:30:14.113Z,88
2017-02-22T06:31:20.124Z,88
2017-02-22T06:32:26.141Z,88
2017-02-22T06:33:32.163Z,88
2017-02-22T06:34:37.077Z,88
2017-02-22T06:35:43.097Z,88
2017-02-22T06:36:48.451Z,88
2017-02-22T06:37:53.368Z,88
2017-02-22T06:38:59.388Z,88
2017-02-22T06:40:05.408Z,88
2017-02-22T06:41:11.429Z,88
2017-02-22T06:42:16.117Z,88
2017-02-22T06:43:22.131Z,88
2017-02-22T06:44:28.147Z,88
2017-02-22T06:45:33.505Z,88
2017-02-22T06:46:39.521Z,88
2017-02-22T06:47:45.538Z,88
2017-02-22T06:48:51.557Z,88
2017-02-22T06:49:56.249Z,88
2017-02-22T06:51:02.266Z,88
2017-02-22T06:52:08.282Z,88
2017-02-22T06:53:13.637Z,87
2017-02-22T06:54:19.656Z,87
2017-02-22T06:55:25.672Z,87
2017-02-22T06:56:31.684Z,87
2017-02-22T06:57:37.705Z,87
2017-02-22T06:58:43.060Z,87
2017-02-22T06:59:49.078Z,87
2017-02-22T07:00:55.088Z,87
2017-02-22T07:02:01.103Z,87
2017-02-22T07:03:07.116Z,87
2017-02-22T07:04:13.130Z,87
2017-02-22T07:05:19.172Z,87
2017-02-22T07:06:25.171Z,87
2017-02-22T07:07:31.194Z,87
2017-02-22T07:08:37.208Z,87
2017-02-22T07:09:43.232Z,87
2017-02-22T07:10:48.586Z,87
2017-02-22T07:11:54.595Z,87
2017-02-22T07:13:00.615Z,87
2017-02-22T07:14:06.635Z,87
2017-02-22T07:15:12.652Z,87
2017-02-22T07:16:18.673Z,87
2017-02-22T07:17:24.687Z,87
2017-02-22T07:18:30.707Z,87
2017-02-22T07:19:35.621Z,87
2017-02-22T07:20:41.640Z,87
2017-02-22T07:21:47.646Z,87
2017-02-22T07:22:53.677Z,87
2017-02-22T07:23:59.682Z,87
2017-02-22T07:25:05.710Z,87
2017-02-22T07:26:11.718Z,87
2017-02-22T07:27:17.735Z,87
2017-02-22T07:28:23.756Z,87
2017-02-22T07:29:29.771Z,87
2017-02-22T07:30:34.459Z,87
2017-02-22T07:31:39.382Z,87
2017-02-22T07:32:45.406Z,87
2017-02-22T07:33:51.420Z,87
2017-02-22T07:34:57.443Z,87
2017-02-22T07:36:03.460Z,87
2017-02-22T07:37:09.485Z,87
2017-02-22T07:38:15.498Z,87
2017-02-22T07:39:21.516Z,87
2017-02-22T07:40:26.875Z,87
2017-02-22T07:41:32.228Z,87
2017-02-22T07:42:37.145Z,87
2017-02-22T07:43:43.166Z,87
2017-02-22T07:44:49.181Z,87
2017-02-22T07:45:55.201Z,87
2017-02-22T07:47:01.221Z,87
2017-02-22T07:48:07.241Z,87
2017-02-22T07:49:13.247Z,87
2017-02-22T07:50:19.267Z,87
2017-02-22T07:51:24.619Z,87
2017-02-22T07:52:30.635Z,87
2017-02-22T07:53:36.646Z,87
2017-02-22T07:54:42.667Z,87
2017-02-22T07:55:48.682Z,87
2017-02-22T07:56:54.703Z,87
2017-02-22T07:58:00.723Z,87
2017-02-22T07:59:06.738Z,86
2017-02-22T08:00:12.750Z,86
2017-02-22T08:01:18.772Z,86
2017-02-22T08:02:24.791Z,86
2017-02-22T08:03:30.801Z,86
2017-02-22T08:04:36.814Z,86
2017-02-22T08:05:42.833Z,86
2017-02-22T08:06:48.202Z,86
2017-02-22T08:07:54.215Z,86
2017-02-22T08:09:00.233Z,86
2017-02-22T08:10:06.280Z,86
2017-02-22T08:11:12.283Z,86
2017-02-22T08:12:16.571Z,86
2017-02-22T08:13:21.905Z,86
2017-02-22T08:14:27.965Z,86
2017-02-22T08:15:33.982Z,86
2017-02-22T08:16:38.241Z,86
2017-02-22T08:17:44.261Z,86
2017-02-22T08:18:50.289Z,86
2017-02-22T08:19:56.297Z,86
2017-02-22T08:21:02.322Z,86
2017-02-22T08:22:08.343Z,86
2017-02-22T08:23:14.364Z,86
2017-02-22T08:24:20.365Z,86
2017-02-22T08:25:26.384Z,86
2017-02-22T08:26:32.408Z,86
2017-02-22T08:27:37.330Z,86
2017-02-22T08:28:42.685Z,86
2017-02-22T08:29:48.037Z,86
2017-02-22T08:30:54.062Z,86
2017-02-22T08:32:00.081Z,86
2017-02-22T08:33:06.103Z,86
2017-02-22T08:34:12.127Z,86
2017-02-22T08:35:18.161Z,86
2017-02-22T08:36:24.173Z,86
2017-02-22T08:37:30.195Z,86
2017-02-22T08:38:36.215Z,86
2017-02-22T08:39:41.583Z,86
2017-02-22T08:40:47.587Z,86
2017-02-22T08:41:51.860Z,86
2017-02-22T08:42:57.883Z,85
2017-02-22T08:44:03.908Z,85
2017-02-22T08:45:09.926Z,85
2017-02-22T08:46:15.961Z,85
2017-02-22T08:47:20.870Z,85
2017-02-22T08:48:26.893Z,84
2017-02-22T08:49:32.919Z,84
2017-02-22T08:50:38.940Z,83
2017-02-22T08:51:44.964Z,83
2017-02-22T08:52:50.991Z,83
2017-02-22T08:53:56.997Z,83
2017-02-22T08:55:03.015Z,83
2017-02-22T08:56:09.035Z,83
2017-02-22T08:57:15.056Z,83
2017-02-22T08:58:19.966Z,83
2017-02-22T08:59:25.324Z,82
2017-02-22T09:00:30.247Z,82
2017-02-22T09:01:36.258Z,82
2017-02-22T09:02:41.615Z,82
2017-02-22T09:03:47.631Z,81
2017-02-22T09:04:53.652Z,81
2017-02-22T09:05:59.666Z,81
2017-02-22T09:07:05.690Z,80
2017-02-22T09:08:11.706Z,80
2017-02-22T09:09:17.056Z,80
2017-02-22T09:10:23.072Z,80
2017-02-22T09:11:29.087Z,80
2017-02-22T09:12:35.109Z,79
2017-02-22T09:13:41.120Z,79
2017-02-22T09:14:47.132Z,78
2017-02-22T09:15:53.157Z,78
2017-02-22T09:16:58.075Z,78
2017-02-22T09:18:04.090Z,77
2017-02-22T09:19:10.109Z,77
2017-02-22T09:20:16.131Z,77
2017-02-22T09:21:22.146Z,77
2017-02-22T09:22:28.167Z,77
2017-02-22T09:23:34.189Z,77
2017-02-22T09:24:40.212Z,77
2017-02-22T09:25:46.234Z,77
2017-02-22T09:26:52.250Z,77
2017-02-22T09:27:57.600Z,77
2017-02-22T09:29:03.621Z,77
2017-02-22T09:30:09.644Z,77
2017-02-22T09:31:14.999Z,77
2017-02-22T09:32:20.353Z,77
2017-02-22T09:33:26.379Z,77
2017-02-22T09:34:32.403Z,77
2017-02-22T09:35:38.431Z,77
2017-02-22T09:36:43.784Z,77
2017-02-22T09:37:49.799Z,78
2017-02-22T09:38:55.151Z,78
2017-02-22T09:40:01.165Z,78
2017-02-22T09:41:07.183Z,78
2017-02-22T09:42:13.200Z,78
2017-02-22T09:43:19.213Z,78
2017-02-22T09:44:24.566Z,78
2017-02-22T09:45:30.587Z,78
2017-02-22T09:46:35.499Z,78
2017-02-22T09:47:40.410Z,78
2017-02-22T09:48:46.431Z,78
2017-02-22T09:49:52.453Z,78
2017-02-22T09:50:58.468Z,78
2017-02-22T09:52:03.821Z,78
2017-02-22T09:53:09.848Z,78
2017-02-22T09:54:15.866Z,78
2017-02-22T09:55:21.221Z,78
2017-02-22T09:56:27.235Z,78
2017-02-22T09:57:33.264Z,78
2017-02-22T09:58:39.280Z,78
2017-02-22T09:59:45.299Z,78
2017-02-22T10:00:51.322Z,78
2017-02-22T10:01:56.674Z,78
2017-02-22T10:03:02.712Z,78
2017-02-22T10:04:08.713Z,78
2017-02-22T10:05:14.730Z,77
2017-02-22T10:06:20.743Z,77
2017-02-22T10:07:26.755Z,76
2017-02-22T10:08:32.779Z,76
2017-02-22T10:09:38.799Z,76
2017-02-22T10:10:44.815Z,76
2017-02-22T10:11:50.842Z,76
2017-02-22T10:12:56.861Z,76
2017-02-22T10:14:02.886Z,76
2017-02-22T10:15:08.898Z,76
2017-02-22T10:16:14.916Z,76
2017-02-22T10:17:20.924Z,75
2017-02-22T10:18:26.942Z,76
2017-02-22T10:19:32.302Z,76
2017-02-22T10:20:38.330Z,75
2017-02-22T10:21:44.346Z,75
2017-02-22T10:22:50.366Z,75
2017-02-22T10:23:56.386Z,75
2017-02-22T10:25:02.407Z,74
2017-02-22T10:26:08.417Z,75
2017-02-22T10:27:14.437Z,74
2017-02-22T10:28:20.456Z,74
2017-02-22T10:29:26.469Z,74
2017-02-22T10:30:32.485Z,74
2017-02-22T10:31:38.498Z,73
2017-02-22T10:32:44.516Z,73
2017-02-22T10:33:49.870Z,73
2017-02-22T10:34:55.886Z,72
2017-02-22T10:36:01.907Z,72
2017-02-22T10:37:07.921Z,72
2017-02-22T10:38:13.935Z,72
2017-02-22T10:39:19.954Z,72
2017-02-22T10:40:24.875Z,72
2017-02-22T10:41:30.894Z,72
2017-02-22T10:42:36.899Z,72
2017-02-22T10:43:42.256Z,71
2017-02-22T10:44:48.278Z,71
2017-02-22T10:45:54.300Z,71
2017-02-22T10:47:00.316Z,71
2017-02-22T10:48:06.337Z,71
2017-02-22T10:49:12.357Z,71
2017-02-22T10:50:18.381Z,71
2017-02-22T10:51:24.390Z,71
2017-02-22T10:52:30.410Z,71
2017-02-22T10:53:36.425Z,71
2017-02-22T10:54:42.441Z,70
2017-02-22T10:55:48.456Z,70
2017-02-22T10:56:54.474Z,70
2017-02-22T10:58:00.496Z,69
2017-02-22T10:59:06.516Z,69
2017-02-22T11:00:12.532Z,69
2017-02-22T11:01:18.555Z,69
2017-02-22T11:02:24.578Z,69
2017-02-22T11:03:30.598Z,69
2017-02-22T11:04:34.859Z,68
2017-02-22T11:05:40.877Z,68
2017-02-22T11:06:46.887Z,68
2017-02-22T11:07:52.906Z,68
2017-02-22T11:08:58.927Z,68
2017-02-22T11:10:04.281Z,68
2017-02-22T11:11:10.301Z,68
2017-02-22T11:12:16.329Z,68
2017-02-22T11:13:22.348Z,68
2017-02-22T11:14:27.701Z,68
2017-02-22T11:15:33.716Z,68
2017-02-22T11:16:39.739Z,68
2017-02-22T11:17:45.766Z,68
2017-02-22T11:18:51.780Z,67
2017-02-22T11:19:57.792Z,67
2017-02-22T11:21:03.817Z,68
2017-02-22T11:22:09.836Z,68
2017-02-22T11:23:15.856Z,67
2017-02-22T11:24:21.874Z,68
2017-02-22T11:25:27.232Z,68
2017-02-22T11:26:32.145Z,67
2017-02-22T11:27:38.165Z,66
2017-02-22T11:28:44.186Z,65
2017-02-22T11:29:49.555Z,66
2017-02-22T11:30:55.568Z,66
2017-02-22T11:32:00.923Z,66
2017-02-22T11:33:06.949Z,66
2017-02-22T11:34:12.964Z,65
2017-02-22T11:35:17.880Z,64
2017-02-22T11:36:23.242Z,63
2017-02-22T11:37:29.267Z,63
2017-02-22T11:38:35.281Z,63
2017-02-22T11:39:41.302Z,63
2017-02-22T11:40:47.311Z,63
2017-02-22T11:41:53.332Z,63
2017-02-22T11:42:59.347Z,63
2017-02-22T11:44:05.365Z,63
2017-02-22T11:45:11.380Z,63
2017-02-22T11:46:17.400Z,63
2017-02-22T11:47:23.422Z,63
2017-02-22T11:48:29.443Z,62
2017-02-22T11:49:35.459Z,62
2017-02-22T11:50:41.478Z,62
2017-02-22T11:51:47.499Z,62
2017-02-22T11:52:53.512Z,61
2017-02-22T11:53:59.525Z,59
2017-02-22T11:55:04.437Z,59
2017-02-22T11:56:10.461Z,58
2017-02-22T11:57:16.467Z,59
2017-02-22T11:58:22.489Z,60
2017-02-22T11:59:27.406Z,60
2017-02-22T12:00:32.764Z,61
2017-02-22T12:01:38.777Z,59
2017-02-22T12:02:44.799Z,58
2017-02-22T12:03:50.824Z,58
2017-02-22T12:04:56.845Z,59
2017-02-22T12:06:01.764Z,59
2017-02-22T12:07:07.788Z,60
2017-02-22T12:08:13.809Z,59
2017-02-22T12:09:19.819Z,59
2017-02-22T12:10:25.837Z,61
2017-02-22T12:11:31.856Z,61
2017-02-22T12:12:37.878Z,61
2017-02-22T12:13:43.895Z,61
2017-02-22T12:14:49.910Z,59
2017-02-22T12:15:55.929Z,58
2017-02-22T12:17:01.294Z,58
2017-02-22T12:18:07.315Z,58
2017-02-22T12:19:13.329Z,57
2017-02-22T12:20:19.347Z,57
2017-02-22T12:21:25.368Z,58
2017-02-22T12:22:30.726Z,57
2017-02-22T12:23:36.746Z,57
2017-02-22T12:24:42.770Z,57
2017-02-22T12:25:48.784Z,57
2017-02-22T12:26:54.807Z,56
2017-02-22T12:28:00.825Z,55
2017-02-22T12:29:06.849Z,55
2017-02-22T12:30:12.865Z,55
2017-02-22T12:31:18.893Z,55
2017-02-22T12:32:24.909Z,55
2017-02-22T12:33:30.263Z,54
2017-02-22T12:34:35.616Z,54
2017-02-22T12:35:41.641Z,54
2017-02-22T12:36:47.672Z,53
2017-02-22T12:37:53.691Z,53
2017-02-22T12:38:59.705Z,54
2017-02-22T12:40:05.728Z,54
2017-02-22T12:41:11.750Z,54
2017-02-22T12:42:17.767Z,55
2017-02-22T12:43:23.781Z,54
2017-02-22T12:44:29.800Z,54
2017-02-22T12:45:35.820Z,54
2017-02-22T12:46:41.834Z,53
2017-02-22T12:47:47.860Z,53
2017-02-22T12:48:53.882Z,53
2017-02-22T12:49:59.896Z,54
2017-02-22T12:51:05.917Z,54
2017-02-22T12:52:11.925Z,54
2017-02-22T12:53:17.951Z,54
2017-02-22T12:54:23.972Z,54
2017-02-22T12:55:29.991Z,54
2017-02-22T12:56:36.013Z,54
2017-02-22T12:57:42.040Z,54
2017-02-22T12:58:48.057Z,54
2017-02-22T12:59:53.409Z,54
2017-02-22T13:00:59.431Z,53
2017-02-22T13:02:05.455Z,53
2017-02-22T13:03:11.471Z,53
2017-02-22T13:04:17.490Z,53
2017-02-22T13:05:23.514Z,53
2017-02-22T13:06:29.532Z,53
2017-02-22T13:07:35.555Z,52
2017-02-22T13:08:41.572Z,52
2017-02-22T13:09:47.593Z,52
2017-02-22T13:10:53.603Z,52
2017-02-22T13:11:59.619Z,52
2017-02-22T13:13:05.629Z,52
2017-02-22T13:14:11.684Z,52
2017-02-22T13:15:15.907Z,52
2017-02-22T13:16:21.930Z,52
2017-02-22T13:17:27.943Z,51
2017-02-22T13:18:33.965Z,51
2017-02-22T13:19:39.983Z,50
2017-02-22T13:20:45.998Z,50
2017-02-22T13:21:52.009Z,50
2017-02-22T13:22:58.025Z,50
2017-02-22T13:24:04.049Z,51
2017-02-22T13:25:10.063Z,51
2017-02-22T13:26:16.104Z,50
2017-02-22T13:27:22.113Z,50
2017-02-22T13:28:28.267Z,50
2017-02-22T13:29:33.530Z,51
2017-02-22T13:30:39.546Z,51
2017-02-22T13:31:45.568Z,51
2017-02-22T13:32:51.581Z,51
2017-02-22T13:33:57.599Z,51
2017-02-22T13:35:03.620Z,51
2017-02-22T13:36:09.638Z,51
2017-02-22T13:37:15.652Z,51
2017-02-22T13:38:21.666Z,51
2017-02-22T13:39:27.679Z,52
2017-02-22T13:40:33.698Z,52
2017-02-22T13:41:39.729Z,52
2017-02-22T13:42:45.748Z,52
2017-02-22T13:43:51.769Z,52
2017-02-22T13:44:57.814Z,52
2017-02-22T13:46:03.833Z,52
2017-02-22T13:47:09.845Z,52
2017-02-22T13:48:15.863Z,52
2017-02-22T13:49:20.113Z,52
2017-02-22T13:50:25.482Z,52
2017-02-22T13:51:31.498Z,52
2017-02-22T13:52:37.510Z,52
2017-02-22T13:53:43.536Z,52
2017-02-22T13:54:49.557Z,52
2017-02-22T13:55:55.576Z,52
2017-02-22T13:57:00.506Z,52
2017-02-22T13:58:05.845Z,52
2017-02-22T13:59:10.769Z,52
2017-02-22T14:00:16.787Z,52
2017-02-22T14:01:22.817Z,52
2017-02-22T14:02:28.835Z,52
2017-02-22T14:03:34.850Z,52
2017-02-22T14:04:40.206Z,53
2017-02-22T14:05:45.559Z,53
2017-02-22T14:06:50.915Z,53
2017-02-22T14:07:56.951Z,53
2017-02-22T14:09:02.962Z,53
2017-02-22T14:10:09.170Z,54
2017-02-22T14:11:14.526Z,53
2017-02-22T14:12:19.443Z,53
2017-02-22T14:13:25.463Z,53
2017-02-22T14:14:31.492Z,53
2017-02-22T14:15:36.835Z,53
2017-02-22T14:16:42.192Z,53
2017-02-22T14:17:47.107Z,53
2017-02-22T14:18:53.126Z,53
2017-02-22T14:19:59.140Z,53
2017-02-22T14:21:04.498Z,53
2017-02-22T14:22:10.511Z,53
2017-02-22T14:23:16.526Z,53
2017-02-22T14:24:22.552Z,53
2017-02-22T14:25:28.575Z,54
2017-02-22T14:26:34.593Z,54
2017-02-22T14:27:40.607Z,54
2017-02-22T14:28:46.635Z,54
2017-02-22T14:29:52.647Z,54
2017-02-22T14:30:58.658Z,54
2017-02-22T14:32:04.672Z,54
2017-02-22T14:33:10.696Z,53
2017-02-22T14:34:16.707Z,53
2017-02-22T14:35:22.064Z,53
2017-02-22T14:36:28.073Z,54
2017-02-22T14:37:34.091Z,53
2017-02-22T14:38:40.110Z,53
2017-02-22T14:39:45.459Z,54
2017-02-22T14:40:50.373Z,54
2017-02-22T14:41:56.390Z,53
2017-02-22T14:43:02.410Z,53
2017-02-22T14:44:07.765Z,53
2017-02-22T14:45:13.795Z,54
2017-02-22T14:46:19.793Z,54
2017-02-22T14:47:25.814Z,54
2017-02-22T14:48:31.835Z,54
2017-02-22T14:49:37.845Z,54
2017-02-22T14:50:43.864Z,54
2017-02-22T14:51:49.887Z,54
2017-02-22T14:52:55.891Z,54
2017-02-22T14:54:01.912Z,54
2017-02-22T14:55:06.828Z,55
2017-02-22T14:56:12.182Z,55
2017-02-22T14:57:18.195Z,55
2017-02-22T14:58:23.550Z,55
2017-02-22T14:59:29.568Z,55
2017-02-22T15:00:35.580Z,55
2017-02-22T15:01:41.588Z,55
2017-02-22T15:02:46.507Z,55
2017-02-22T15:03:52.528Z,55
2017-02-22T15:04:58.544Z,55
2017-02-22T15:06:04.563Z,55
2017-02-22T15:07:10.587Z,55
2017-02-22T15:08:16.611Z,55
2017-02-22T15:09:22.622Z,55
2017-02-22T15:10:28.635Z,55
2017-02-22T15:11:34.658Z,55
2017-02-22T15:12:40.676Z,55
2017-02-22T15:13:46.693Z,55
2017-02-22T15:14:52.707Z,55
2017-02-22T15:15:58.729Z,56
2017-02-22T15:17:04.743Z,56
2017-02-22T15:18:10.755Z,56
2017-02-22T15:19:16.767Z,56
2017-02-22T15:20:22.786Z,56
2017-02-22T15:21:27.485Z,56
2017-02-22T15:22:33.498Z,56
2017-02-22T15:23:39.518Z,55
2017-02-22T15:24:45.534Z,55
2017-02-22T15:25:51.549Z,55
2017-02-22T15:26:57.573Z,56
2017-02-22T15:28:02.926Z,56
2017-02-22T15:29:08.946Z,56
2017-02-22T15:30:14.957Z,56
2017-02-22T15:31:20.973Z,56
2017-02-22T15:32:26.324Z,56
2017-02-22T15:33:32.339Z,56
2017-02-22T15:34:38.358Z,56
2017-02-22T15:35:44.377Z,56
2017-02-22T15:36:50.397Z,56
2017-02-22T15:37:56.412Z,56
2017-02-22T15:39:02.432Z,56
2017-02-22T15:40:08.453Z,56